sensor_id;sensor_type;location;lat;lon;timestamp;temperature;humidity
66708;DHT22;53622;0.000;0.000;2023-08-31T00:01:49;23.40;59.90
66708;DHT22;53622;0.000;0.000;2023-08-31T00:04:21;23.40;59.90
66708;DHT22;53622;0.000;0.000;2023-08-31T00:06:50;23.40;59.90
66708;DHT22;53622;0.000;0.000;2023-08-31T00:09:19;23.40;59.90
66708;DHT22;53622;0.000;0.000;2023-08-31T00:11:48;23.40;59.90
66708;DHT22;53622;0.000;0.000;2023-08-31T00:14:17;23.40;59.90
66708;DHT22;53622;0.000;0.000;2023-08-31T00:16:46;23.40;59.80
66708;DHT22;53622;0.000;0.000;2023-08-31T00:19:15;23.40;59.90
66708;DHT22;53622;0.000;0.000;2023-08-31T00:21:45;23.40;59.80
66708;DHT22;53622;0.000;0.000;2023-08-31T00:24:16;23.40;59.90
66708;DHT22;53622;0.000;0.000;2023-08-31T00:26:45;23.40;59.80
66708;DHT22;53622;0.000;0.000;2023-08-31T00:29:14;23.40;59.80
66708;DHT22;53622;0.000;0.000;2023-08-31T00:31:44;23.40;59.90
66708;DHT22;53622;0.000;0.000;2023-08-31T00:34:15;23.40;59.80
66708;DHT22;53622;0.000;0.000;2023-08-31T00:36:46;23.30;59.80
66708;DHT22;53622;0.000;0.000;2023-08-31T00:39:15;23.40;59.80
66708;DHT22;53622;0.000;0.000;2023-08-31T00:41:48;23.40;59.90
66708;DHT22;53622;0.000;0.000;2023-08-31T00:44:17;23.40;59.90
66708;DHT22;53622;0.000;0.000;2023-08-31T00:46:48;23.30;59.80
66708;DHT22;53622;0.000;0.000;2023-08-31T00:49:17;23.30;59.90
66708;DHT22;53622;0.000;0.000;2023-08-31T00:51:48;23.30;59.80
66708;DHT22;53622;0.000;0.000;2023-08-31T00:54:18;23.30;59.80
66708;DHT22;53622;0.000;0.000;2023-08-31T00:56:52;23.30;59.80
66708;DHT22;53622;0.000;0.000;2023-08-31T00:59:21;23.30;59.80
66708;DHT22;53622;0.000;0.000;2023-08-31T01:01:58;23.30;59.80
66708;DHT22;53622;0.000;0.000;2023-08-31T01:04:38;23.30;60.50
66708;DHT22;53622;0.000;0.000;2023-08-31T01:07:19;23.30;59.90
66708;DHT22;53622;0.000;0.000;2023-08-31T01:09:57;23.30;59.80
66708;DHT22;53622;0.000;0.000;2023-08-31T01:12:34;23.30;59.80
66708;DHT22;53622;0.000;0.000;2023-08-31T01:15:04;23.30;59.80
66708;DHT22;53622;0.000;0.000;2023-08-31T01:17:39;23.30;59.80
66708;DHT22;53622;0.000;0.000;2023-08-31T01:20:11;23.30;59.80
66708;DHT22;53622;0.000;0.000;2023-08-31T01:22:55;23.30;59.80
66708;DHT22;53622;0.000;0.000;2023-08-31T01:25:26;23.30;59.70
66708;DHT22;53622;0.000;0.000;2023-08-31T01:27:56;23.30;59.80
66708;DHT22;53622;0.000;0.000;2023-08-31T01:30:30;23.30;59.70
66708;DHT22;53622;0.000;0.000;2023-08-31T01:32:59;23.30;59.70
66708;DHT22;53622;0.000;0.000;2023-08-31T01:35:32;23.30;60.30
66708;DHT22;53622;0.000;0.000;2023-08-31T01:38:03;23.30;59.70
66708;DHT22;53622;0.000;0.000;2023-08-31T01:40:43;23.30;59.70
66708;DHT22;53622;0.000;0.000;2023-08-31T01:43:14;23.30;59.70
66708;DHT22;53622;0.000;0.000;2023-08-31T01:45:43;23.30;59.70
66708;DHT22;53622;0.000;0.000;2023-08-31T01:48:14;23.30;59.60
66708;DHT22;53622;0.000;0.000;2023-08-31T01:50:43;23.30;59.60
66708;DHT22;53622;0.000;0.000;2023-08-31T01:53:13;23.30;59.60
66708;DHT22;53622;0.000;0.000;2023-08-31T01:55:43;23.30;59.60
66708;DHT22;53622;0.000;0.000;2023-08-31T01:58:12;23.30;59.60
66708;DHT22;53622;0.000;0.000;2023-08-31T02:00:42;23.30;59.60
66708;DHT22;53622;0.000;0.000;2023-08-31T02:03:12;23.30;59.60
66708;DHT22;53622;0.000;0.000;2023-08-31T02:05:42;23.30;59.50
66708;DHT22;53622;0.000;0.000;2023-08-31T02:08:10;23.30;59.50
66708;DHT22;53622;0.000;0.000;2023-08-31T02:10:40;23.30;59.60
66708;DHT22;53622;0.000;0.000;2023-08-31T02:13:10;23.30;59.50
66708;DHT22;53622;0.000;0.000;2023-08-31T02:15:40;23.30;59.60
66708;DHT22;53622;0.000;0.000;2023-08-31T02:18:08;23.30;59.60
66708;DHT22;53622;0.000;0.000;2023-08-31T02:20:37;23.30;59.60
66708;DHT22;53622;0.000;0.000;2023-08-31T02:23:06;23.30;59.60
66708;DHT22;53622;0.000;0.000;2023-08-31T02:25:37;23.30;59.60
66708;DHT22;53622;0.000;0.000;2023-08-31T02:28:06;23.30;59.60
66708;DHT22;53622;0.000;0.000;2023-08-31T02:30:38;23.30;59.60
66708;DHT22;53622;0.000;0.000;2023-08-31T02:33:07;23.30;59.60
66708;DHT22;53622;0.000;0.000;2023-08-31T02:35:37;23.30;59.60
66708;DHT22;53622;0.000;0.000;2023-08-31T02:38:06;23.30;59.60
66708;DHT22;53622;0.000;0.000;2023-08-31T02:40:35;23.30;59.60
66708;DHT22;53622;0.000;0.000;2023-08-31T02:43:07;23.30;59.60
66708;DHT22;53622;0.000;0.000;2023-08-31T02:45:38;23.30;59.50
66708;DHT22;53622;0.000;0.000;2023-08-31T02:48:08;23.20;59.40
66708;DHT22;53622;0.000;0.000;2023-08-31T02:50:37;23.30;59.50
66708;DHT22;53622;0.000;0.000;2023-08-31T02:53:06;23.30;59.50
66708;DHT22;53622;0.000;0.000;2023-08-31T02:55:36;23.30;59.40
66708;DHT22;53622;0.000;0.000;2023-08-31T02:58:05;23.30;59.30
66708;DHT22;53622;0.000;0.000;2023-08-31T03:00:33;23.30;59.30
66708;DHT22;53622;0.000;0.000;2023-08-31T03:03:04;23.30;59.40
66708;DHT22;53622;0.000;0.000;2023-08-31T03:05:33;23.30;59.30
66708;DHT22;53622;0.000;0.000;2023-08-31T03:08:02;23.30;59.40
66708;DHT22;53622;0.000;0.000;2023-08-31T03:10:31;23.20;59.30
66708;DHT22;53622;0.000;0.000;2023-08-31T03:13:00;23.20;59.30
66708;DHT22;53622;0.000;0.000;2023-08-31T03:15:29;23.20;59.40
66708;DHT22;53622;0.000;0.000;2023-08-31T03:17:58;23.20;59.40
66708;DHT22;53622;0.000;0.000;2023-08-31T03:20:28;23.20;59.40
66708;DHT22;53622;0.000;0.000;2023-08-31T03:22:58;23.30;59.40
66708;DHT22;53622;0.000;0.000;2023-08-31T03:25:28;23.20;59.40
66708;DHT22;53622;0.000;0.000;2023-08-31T03:27:57;23.20;59.40
66708;DHT22;53622;0.000;0.000;2023-08-31T03:30:26;23.20;59.40
66708;DHT22;53622;0.000;0.000;2023-08-31T03:32:55;23.20;59.40
66708;DHT22;53622;0.000;0.000;2023-08-31T03:35:24;23.20;59.40
66708;DHT22;53622;0.000;0.000;2023-08-31T03:37:56;23.20;59.40
66708;DHT22;53622;0.000;0.000;2023-08-31T03:40:27;23.20;59.40
66708;DHT22;53622;0.000;0.000;2023-08-31T03:42:55;23.20;59.40
66708;DHT22;53622;0.000;0.000;2023-08-31T03:45:24;23.20;59.40
66708;DHT22;53622;0.000;0.000;2023-08-31T03:47:53;23.20;60.00
66708;DHT22;53622;0.000;0.000;2023-08-31T03:50:24;23.20;59.40
66708;DHT22;53622;0.000;0.000;2023-08-31T03:52:53;23.20;59.40
66708;DHT22;53622;0.000;0.000;2023-08-31T03:55:24;23.20;59.30
66708;DHT22;53622;0.000;0.000;2023-08-31T03:57:53;23.20;59.40
66708;DHT22;53622;0.000;0.000;2023-08-31T04:00:23;23.20;59.40
66708;DHT22;53622;0.000;0.000;2023-08-31T04:02:54;23.20;59.90
66708;DHT22;53622;0.000;0.000;2023-08-31T04:05:26;23.20;59.30
66708;DHT22;53622;0.000;0.000;2023-08-31T04:07:55;23.20;59.40
66708;DHT22;53622;0.000;0.000;2023-08-31T04:10:26;23.20;59.40
66708;DHT22;53622;0.000;0.000;2023-08-31T04:12:57;23.20;59.40
66708;DHT22;53622;0.000;0.000;2023-08-31T04:15:28;23.20;59.40
66708;DHT22;53622;0.000;0.000;2023-08-31T04:17:58;23.20;59.40
66708;DHT22;53622;0.000;0.000;2023-08-31T04:20:27;23.20;59.50
66708;DHT22;53622;0.000;0.000;2023-08-31T04:22:56;23.20;59.40
66708;DHT22;53622;0.000;0.000;2023-08-31T04:25:28;23.20;59.50
66708;DHT22;53622;0.000;0.000;2023-08-31T04:27:58;23.20;59.40
66708;DHT22;53622;0.000;0.000;2023-08-31T04:30:27;23.20;59.40
66708;DHT22;53622;0.000;0.000;2023-08-31T04:32:55;23.20;59.40
66708;DHT22;53622;0.000;0.000;2023-08-31T04:35:24;23.20;59.40
66708;DHT22;53622;0.000;0.000;2023-08-31T04:37:53;23.20;59.40
66708;DHT22;53622;0.000;0.000;2023-08-31T04:40:22;23.20;59.40
66708;DHT22;53622;0.000;0.000;2023-08-31T04:42:53;23.20;59.40
66708;DHT22;53622;0.000;0.000;2023-08-31T04:45:22;23.20;59.50
66708;DHT22;53622;0.000;0.000;2023-08-31T04:47:51;23.20;59.50
66708;DHT22;53622;0.000;0.000;2023-08-31T04:50:19;23.20;59.50
66708;DHT22;53622;0.000;0.000;2023-08-31T04:52:48;23.20;59.50
66708;DHT22;53622;0.000;0.000;2023-08-31T04:55:17;23.20;59.40
66708;DHT22;53622;0.000;0.000;2023-08-31T04:57:49;23.20;59.50
66708;DHT22;53622;0.000;0.000;2023-08-31T05:00:20;23.20;59.50
66708;DHT22;53622;0.000;0.000;2023-08-31T05:02:49;23.10;59.40
66708;DHT22;53622;0.000;0.000;2023-08-31T05:05:18;23.20;60.00
66708;DHT22;53622;0.000;0.000;2023-08-31T05:07:47;23.20;59.50
66708;DHT22;53622;0.000;0.000;2023-08-31T05:10:16;23.20;59.40
66708;DHT22;53622;0.000;0.000;2023-08-31T05:12:45;23.20;59.40
66708;DHT22;53622;0.000;0.000;2023-08-31T05:15:14;23.10;59.40
66708;DHT22;53622;0.000;0.000;2023-08-31T05:17:45;23.20;59.50
66708;DHT22;53622;0.000;0.000;2023-08-31T05:20:15;23.20;59.50
66708;DHT22;53622;0.000;0.000;2023-08-31T05:22:44;23.10;59.50
66708;DHT22;53622;0.000;0.000;2023-08-31T05:25:14;23.20;59.60
66708;DHT22;53622;0.000;0.000;2023-08-31T05:27:43;23.30;59.60
66708;DHT22;53622;0.000;0.000;2023-08-31T05:30:12;23.30;59.50
66708;DHT22;53622;0.000;0.000;2023-08-31T05:32:41;23.20;59.60
66708;DHT22;53622;0.000;0.000;2023-08-31T05:35:12;23.30;59.70
66708;DHT22;53622;0.000;0.000;2023-08-31T05:37:41;23.30;59.70
66708;DHT22;53622;0.000;0.000;2023-08-31T05:40:12;23.30;59.70
66708;DHT22;53622;0.000;0.000;2023-08-31T05:42:43;23.30;59.70
66708;DHT22;53622;0.000;0.000;2023-08-31T05:45:12;23.30;59.70
66708;DHT22;53622;0.000;0.000;2023-08-31T05:47:41;23.30;59.80
66708;DHT22;53622;0.000;0.000;2023-08-31T05:50:11;23.30;59.70
66708;DHT22;53622;0.000;0.000;2023-08-31T05:52:40;23.20;59.90
66708;DHT22;53622;0.000;0.000;2023-08-31T05:55:11;23.20;59.80
66708;DHT22;53622;0.000;0.000;2023-08-31T05:57:40;23.20;59.70
66708;DHT22;53622;0.000;0.000;2023-08-31T06:00:10;23.20;59.70
66708;DHT22;53622;0.000;0.000;2023-08-31T06:02:39;23.20;59.90
66708;DHT22;53622;0.000;0.000;2023-08-31T06:05:11;23.20;60.00
66708;DHT22;53622;0.000;0.000;2023-08-31T06:07:44;23.20;60.00
66708;DHT22;53622;0.000;0.000;2023-08-31T06:10:13;23.20;59.90
66708;DHT22;53622;0.000;0.000;2023-08-31T06:12:42;23.20;60.00
66708;DHT22;53622;0.000;0.000;2023-08-31T06:15:12;23.20;60.00
66708;DHT22;53622;0.000;0.000;2023-08-31T06:17:43;23.20;60.10
66708;DHT22;53622;0.000;0.000;2023-08-31T06:20:14;23.20;61.00
66708;DHT22;53622;0.000;0.000;2023-08-31T06:22:43;23.20;60.30
66708;DHT22;53622;0.000;0.000;2023-08-31T06:25:12;23.20;60.40
66708;DHT22;53622;0.000;0.000;2023-08-31T06:27:42;23.20;60.40
66708;DHT22;53622;0.000;0.000;2023-08-31T06:30:12;23.20;60.50
66708;DHT22;53622;0.000;0.000;2023-08-31T06:32:43;23.20;60.40
66708;DHT22;53622;0.000;0.000;2023-08-31T06:35:14;23.20;60.40
66708;DHT22;53622;0.000;0.000;2023-08-31T06:37:46;23.20;60.40
66708;DHT22;53622;0.000;0.000;2023-08-31T06:40:15;23.20;60.30
66708;DHT22;53622;0.000;0.000;2023-08-31T06:42:44;23.20;60.30
66708;DHT22;53622;0.000;0.000;2023-08-31T06:45:13;23.20;60.40
66708;DHT22;53622;0.000;0.000;2023-08-31T06:47:42;23.20;60.50
66708;DHT22;53622;0.000;0.000;2023-08-31T06:50:11;23.20;60.30
66708;DHT22;53622;0.000;0.000;2023-08-31T06:52:41;23.20;60.40
66708;DHT22;53622;0.000;0.000;2023-08-31T06:55:11;23.20;60.30
66708;DHT22;53622;0.000;0.000;2023-08-31T06:57:40;23.20;60.20
66708;DHT22;53622;0.000;0.000;2023-08-31T07:00:11;23.20;60.50
66708;DHT22;53622;0.000;0.000;2023-08-31T07:02:40;23.20;60.20
66708;DHT22;53622;0.000;0.000;2023-08-31T07:05:10;23.30;60.30
66708;DHT22;53622;0.000;0.000;2023-08-31T07:07:41;23.20;60.20
66708;DHT22;53622;0.000;0.000;2023-08-31T07:10:10;23.20;60.20
66708;DHT22;53622;0.000;0.000;2023-08-31T07:12:39;23.20;60.20
66708;DHT22;53622;0.000;0.000;2023-08-31T07:15:08;23.20;60.20
66708;DHT22;53622;0.000;0.000;2023-08-31T07:17:37;23.20;60.30
66708;DHT22;53622;0.000;0.000;2023-08-31T07:20:07;23.20;60.20
66708;DHT22;53622;0.000;0.000;2023-08-31T07:22:37;23.20;60.10
66708;DHT22;53622;0.000;0.000;2023-08-31T07:25:09;23.20;60.20
66708;DHT22;53622;0.000;0.000;2023-08-31T07:27:38;23.30;60.10
66708;DHT22;53622;0.000;0.000;2023-08-31T07:30:07;23.30;60.00
66708;DHT22;53622;0.000;0.000;2023-08-31T07:32:37;23.30;60.00
66708;DHT22;53622;0.000;0.000;2023-08-31T07:35:07;23.30;60.00
66708;DHT22;53622;0.000;0.000;2023-08-31T07:37:36;23.30;59.90
66708;DHT22;53622;0.000;0.000;2023-08-31T07:40:07;23.40;60.00
66708;DHT22;53622;0.000;0.000;2023-08-31T07:42:39;23.40;60.00
66708;DHT22;53622;0.000;0.000;2023-08-31T07:45:09;23.40;60.10
66708;DHT22;53622;0.000;0.000;2023-08-31T07:47:38;23.40;60.20
66708;DHT22;53622;0.000;0.000;2023-08-31T07:50:07;23.40;60.30
66708;DHT22;53622;0.000;0.000;2023-08-31T07:52:36;23.40;60.40
66708;DHT22;53622;0.000;0.000;2023-08-31T07:55:06;23.40;60.40
66708;DHT22;53622;0.000;0.000;2023-08-31T07:57:36;23.50;60.50
66708;DHT22;53622;0.000;0.000;2023-08-31T08:00:07;23.50;60.40
66708;DHT22;53622;0.000;0.000;2023-08-31T08:02:39;23.50;60.30
66708;DHT22;53622;0.000;0.000;2023-08-31T08:05:08;23.50;60.20
66708;DHT22;53622;0.000;0.000;2023-08-31T08:07:37;23.50;60.20
66708;DHT22;53622;0.000;0.000;2023-08-31T08:10:07;23.50;60.10
66708;DHT22;53622;0.000;0.000;2023-08-31T08:12:37;23.50;60.10
66708;DHT22;53622;0.000;0.000;2023-08-31T08:15:10;23.50;60.10
66708;DHT22;53622;0.000;0.000;2023-08-31T08:17:42;23.60;60.10
66708;DHT22;53622;0.000;0.000;2023-08-31T08:20:12;23.60;60.10
66708;DHT22;53622;0.000;0.000;2023-08-31T08:22:41;23.60;60.20
66708;DHT22;53622;0.000;0.000;2023-08-31T08:25:11;23.60;60.10
66708;DHT22;53622;0.000;0.000;2023-08-31T08:27:40;23.60;60.10
66708;DHT22;53622;0.000;0.000;2023-08-31T08:30:11;23.60;60.10
66708;DHT22;53622;0.000;0.000;2023-08-31T08:32:40;23.50;60.20
66708;DHT22;53622;0.000;0.000;2023-08-31T08:35:10;23.50;60.20
66708;DHT22;53622;0.000;0.000;2023-08-31T08:37:39;23.50;60.30
66708;DHT22;53622;0.000;0.000;2023-08-31T08:40:10;23.50;60.50
66708;DHT22;53622;0.000;0.000;2023-08-31T08:42:41;23.60;61.00
66708;DHT22;53622;0.000;0.000;2023-08-31T08:45:13;23.60;60.30
66708;DHT22;53622;0.000;0.000;2023-08-31T08:47:44;23.60;60.40
66708;DHT22;53622;0.000;0.000;2023-08-31T08:50:13;23.60;60.30
66708;DHT22;53622;0.000;0.000;2023-08-31T08:52:43;23.60;60.30
66708;DHT22;53622;0.000;0.000;2023-08-31T08:55:13;23.60;60.20
66708;DHT22;53622;0.000;0.000;2023-08-31T08:57:42;23.70;60.30
66708;DHT22;53622;0.000;0.000;2023-08-31T09:00:13;23.70;60.20
66708;DHT22;53622;0.000;0.000;2023-08-31T09:02:42;23.70;60.20
66708;DHT22;53622;0.000;0.000;2023-08-31T09:05:13;23.70;60.20
66708;DHT22;53622;0.000;0.000;2023-08-31T09:07:59;23.70;60.10
66708;DHT22;53622;0.000;0.000;2023-08-31T09:10:33;23.70;60.10
66708;DHT22;53622;0.000;0.000;2023-08-31T09:13:08;23.70;60.40
66708;DHT22;53622;0.000;0.000;2023-08-31T09:15:42;23.70;60.70
66708;DHT22;53622;0.000;0.000;2023-08-31T09:18:16;23.80;60.20
66708;DHT22;53622;0.000;0.000;2023-08-31T09:20:46;23.90;60.00
66708;DHT22;53622;0.000;0.000;2023-08-31T09:23:16;24.00;59.80
66708;DHT22;53622;0.000;0.000;2023-08-31T09:25:46;24.10;59.70
66708;DHT22;53622;0.000;0.000;2023-08-31T09:28:16;24.10;59.60
66708;DHT22;53622;0.000;0.000;2023-08-31T09:30:49;24.10;59.70
66708;DHT22;53622;0.000;0.000;2023-08-31T09:33:20;24.00;59.90
66708;DHT22;53622;0.000;0.000;2023-08-31T09:35:50;24.00;59.90
66708;DHT22;53622;0.000;0.000;2023-08-31T09:38:19;23.90;60.00
66708;DHT22;53622;0.000;0.000;2023-08-31T09:40:49;23.90;60.00
66708;DHT22;53622;0.000;0.000;2023-08-31T09:43:19;23.90;60.10
66708;DHT22;53622;0.000;0.000;2023-08-31T09:45:51;24.00;60.00
66708;DHT22;53622;0.000;0.000;2023-08-31T09:48:22;24.00;60.00
66708;DHT22;53622;0.000;0.000;2023-08-31T09:50:52;24.00;60.00
66708;DHT22;53622;0.000;0.000;2023-08-31T09:53:24;24.00;60.00
66708;DHT22;53622;0.000;0.000;2023-08-31T09:55:57;24.00;59.90
66708;DHT22;53622;0.000;0.000;2023-08-31T09:58:27;24.00;59.90
66708;DHT22;53622;0.000;0.000;2023-08-31T10:01:01;24.00;59.90
66708;DHT22;53622;0.000;0.000;2023-08-31T10:03:42;24.00;60.00
66708;DHT22;53622;0.000;0.000;2023-08-31T10:06:12;24.00;59.90
66708;DHT22;53622;0.000;0.000;2023-08-31T10:08:41;24.00;59.90
66708;DHT22;53622;0.000;0.000;2023-08-31T10:11:11;24.00;60.00
66708;DHT22;53622;0.000;0.000;2023-08-31T10:13:43;24.00;59.90
66708;DHT22;53622;0.000;0.000;2023-08-31T10:16:14;24.00;59.90
66708;DHT22;53622;0.000;0.000;2023-08-31T10:18:44;24.00;59.90
66708;DHT22;53622;0.000;0.000;2023-08-31T10:21:16;24.00;59.90
66708;DHT22;53622;0.000;0.000;2023-08-31T10:23:46;24.00;60.00
66708;DHT22;53622;0.000;0.000;2023-08-31T10:26:23;24.00;59.90
66708;DHT22;53622;0.000;0.000;2023-08-31T10:28:52;24.00;60.00
66708;DHT22;53622;0.000;0.000;2023-08-31T10:31:23;24.00;59.80
66708;DHT22;53622;0.000;0.000;2023-08-31T10:33:56;24.00;59.80
66708;DHT22;53622;0.000;0.000;2023-08-31T10:36:37;24.00;59.60
66708;DHT22;53622;0.000;0.000;2023-08-31T10:39:11;24.00;59.60
66708;DHT22;53622;0.000;0.000;2023-08-31T10:41:41;23.90;59.70
66708;DHT22;53622;0.000;0.000;2023-08-31T10:44:18;23.90;59.50
66708;DHT22;53622;0.000;0.000;2023-08-31T10:46:49;23.90;59.50
66708;DHT22;53622;0.000;0.000;2023-08-31T10:49:20;23.90;59.50
66708;DHT22;53622;0.000;0.000;2023-08-31T10:51:53;23.90;59.40
66708;DHT22;53622;0.000;0.000;2023-08-31T10:54:24;23.90;59.30
66708;DHT22;53622;0.000;0.000;2023-08-31T10:57:04;23.90;59.30
66708;DHT22;53622;0.000;0.000;2023-08-31T10:59:48;23.90;59.30
66708;DHT22;53622;0.000;0.000;2023-08-31T11:02:41;23.90;59.00
66708;DHT22;53622;0.000;0.000;2023-08-31T11:05:11;23.90;59.00
66708;DHT22;53622;0.000;0.000;2023-08-31T11:07:42;23.90;59.00
66708;DHT22;53622;0.000;0.000;2023-08-31T11:10:15;24.00;58.90
66708;DHT22;53622;0.000;0.000;2023-08-31T11:12:47;24.10;58.60
66708;DHT22;53622;0.000;0.000;2023-08-31T11:15:18;24.00;58.70
66708;DHT22;53622;0.000;0.000;2023-08-31T11:17:51;24.00;58.80
66708;DHT22;53622;0.000;0.000;2023-08-31T11:20:23;24.00;58.70
66708;DHT22;53622;0.000;0.000;2023-08-31T11:22:56;24.00;58.80
66708;DHT22;53622;0.000;0.000;2023-08-31T11:25:26;24.00;58.90
66708;DHT22;53622;0.000;0.000;2023-08-31T11:27:56;24.00;58.90
66708;DHT22;53622;0.000;0.000;2023-08-31T11:30:27;24.00;58.80
66708;DHT22;53622;0.000;0.000;2023-08-31T11:33:02;24.00;58.80
66708;DHT22;53622;0.000;0.000;2023-08-31T11:35:33;24.00;58.70
66708;DHT22;53622;0.000;0.000;2023-08-31T11:38:04;24.00;58.50
66708;DHT22;53622;0.000;0.000;2023-08-31T11:40:34;24.00;58.60
66708;DHT22;53622;0.000;0.000;2023-08-31T11:43:04;24.00;58.70
66708;DHT22;53622;0.000;0.000;2023-08-31T11:45:35;24.00;58.80
66708;DHT22;53622;0.000;0.000;2023-08-31T11:48:07;24.00;58.70
66708;DHT22;53622;0.000;0.000;2023-08-31T11:50:39;24.00;58.60
66708;DHT22;53622;0.000;0.000;2023-08-31T11:53:09;24.00;58.60
66708;DHT22;53622;0.000;0.000;2023-08-31T11:55:49;24.00;58.60
66708;DHT22;53622;0.000;0.000;2023-08-31T11:58:19;24.00;58.60
66708;DHT22;53622;0.000;0.000;2023-08-31T12:00:55;24.00;58.60
66708;DHT22;53622;0.000;0.000;2023-08-31T12:03:26;24.00;58.50
66708;DHT22;53622;0.000;0.000;2023-08-31T12:06:16;24.00;58.50
66708;DHT22;53622;0.000;0.000;2023-08-31T12:08:46;24.00;58.30
66708;DHT22;53622;0.000;0.000;2023-08-31T12:11:16;24.00;58.30
66708;DHT22;53622;0.000;0.000;2023-08-31T12:13:47;24.00;58.40
66708;DHT22;53622;0.000;0.000;2023-08-31T12:16:15;24.00;58.30
66708;DHT22;53622;0.000;0.000;2023-08-31T12:18:46;24.10;58.20
66708;DHT22;53622;0.000;0.000;2023-08-31T12:21:15;24.00;58.20
66708;DHT22;53622;0.000;0.000;2023-08-31T12:23:48;24.00;58.40
66708;DHT22;53622;0.000;0.000;2023-08-31T12:26:16;24.00;58.50
66708;DHT22;53622;0.000;0.000;2023-08-31T12:28:45;24.00;58.50
66708;DHT22;53622;0.000;0.000;2023-08-31T12:31:14;24.00;58.50
66708;DHT22;53622;0.000;0.000;2023-08-31T12:33:43;24.00;58.50
66708;DHT22;53622;0.000;0.000;2023-08-31T12:36:14;24.00;58.60
66708;DHT22;53622;0.000;0.000;2023-08-31T12:38:43;23.90;58.50
66708;DHT22;53622;0.000;0.000;2023-08-31T12:41:11;23.90;58.60
66708;DHT22;53622;0.000;0.000;2023-08-31T12:43:40;23.90;58.70
66708;DHT22;53622;0.000;0.000;2023-08-31T12:46:09;23.80;58.80
66708;DHT22;53622;0.000;0.000;2023-08-31T12:48:41;23.80;58.80
66708;DHT22;53622;0.000;0.000;2023-08-31T12:51:10;23.80;58.80
66708;DHT22;53622;0.000;0.000;2023-08-31T12:53:40;23.80;58.90
66708;DHT22;53622;0.000;0.000;2023-08-31T12:56:09;23.80;59.00
66708;DHT22;53622;0.000;0.000;2023-08-31T12:58:38;23.80;59.00
66708;DHT22;53622;0.000;0.000;2023-08-31T13:01:07;23.80;59.00
66708;DHT22;53622;0.000;0.000;2023-08-31T13:03:37;23.80;59.00
66708;DHT22;53622;0.000;0.000;2023-08-31T13:06:05;23.80;59.00
66708;DHT22;53622;0.000;0.000;2023-08-31T13:08:34;23.80;59.00
66708;DHT22;53622;0.000;0.000;2023-08-31T13:11:05;23.80;59.00
66708;DHT22;53622;0.000;0.000;2023-08-31T13:13:34;23.80;59.00
66708;DHT22;53622;0.000;0.000;2023-08-31T13:16:04;23.80;59.10
66708;DHT22;53622;0.000;0.000;2023-08-31T13:18:33;23.80;59.10
66708;DHT22;53622;0.000;0.000;2023-08-31T13:21:03;23.80;59.00
66708;DHT22;53622;0.000;0.000;2023-08-31T13:23:32;23.90;59.00
66708;DHT22;53622;0.000;0.000;2023-08-31T13:26:01;23.90;58.90
66708;DHT22;53622;0.000;0.000;2023-08-31T13:28:31;23.90;59.10
66708;DHT22;53622;0.000;0.000;2023-08-31T13:31:00;23.90;59.10
66708;DHT22;53622;0.000;0.000;2023-08-31T13:33:29;24.00;59.20
66708;DHT22;53622;0.000;0.000;2023-08-31T13:35:58;24.00;59.20
66708;DHT22;53622;0.000;0.000;2023-08-31T13:38:28;24.00;59.20
66708;DHT22;53622;0.000;0.000;2023-08-31T13:40:57;24.00;59.20
66708;DHT22;53622;0.000;0.000;2023-08-31T13:43:28;23.90;59.20
66708;DHT22;53622;0.000;0.000;2023-08-31T13:45:58;24.00;59.40
66708;DHT22;53622;0.000;0.000;2023-08-31T13:48:27;23.90;59.40
66708;DHT22;53622;0.000;0.000;2023-08-31T13:51:00;23.90;59.50
66708;DHT22;53622;0.000;0.000;2023-08-31T13:53:28;24.00;59.60
66708;DHT22;53622;0.000;0.000;2023-08-31T13:55:57;24.00;59.60
66708;DHT22;53622;0.000;0.000;2023-08-31T13:58:27;24.00;59.70
66708;DHT22;53622;0.000;0.000;2023-08-31T14:00:57;23.90;59.80
66708;DHT22;53622;0.000;0.000;2023-08-31T14:03:29;23.90;59.80
66708;DHT22;53622;0.000;0.000;2023-08-31T14:05:58;23.90;59.80
66708;DHT22;53622;0.000;0.000;2023-08-31T14:08:28;23.90;59.80
66708;DHT22;53622;0.000;0.000;2023-08-31T14:10:57;24.00;59.80
66708;DHT22;53622;0.000;0.000;2023-08-31T14:13:26;24.00;59.90
66708;DHT22;53622;0.000;0.000;2023-08-31T14:15:55;24.00;59.70
66708;DHT22;53622;0.000;0.000;2023-08-31T14:18:26;24.00;59.70
66708;DHT22;53622;0.000;0.000;2023-08-31T14:20:57;24.00;59.70
66708;DHT22;53622;0.000;0.000;2023-08-31T15:07:12;23.50;87.60
66708;DHT22;53622;0.000;0.000;2023-08-31T15:24:40;23.70;89.90
66708;DHT22;53622;0.000;0.000;2023-08-31T15:42:06;24.00;91.20
66708;DHT22;53622;0.000;0.000;2023-08-31T15:44:40;24.00;88.10
66708;DHT22;53622;0.000;0.000;2023-08-31T15:57:08;23.90;92.20
66708;DHT22;53622;0.000;0.000;2023-08-31T16:12:04;24.10;90.80
66708;DHT22;53622;0.000;0.000;2023-08-31T16:14:34;23.90;92.30
66708;DHT22;53622;0.000;0.000;2023-08-31T16:32:00;23.90;90.60
66708;DHT22;53622;0.000;0.000;2023-08-31T16:49:26;23.90;91.00
66708;DHT22;53622;0.000;0.000;2023-08-31T17:06:51;24.00;90.70
66708;DHT22;53622;0.000;0.000;2023-08-31T17:24:16;23.90;91.50
66708;DHT22;53622;0.000;0.000;2023-08-31T17:41:43;23.90;90.10
66708;DHT22;53622;0.000;0.000;2023-08-31T17:59:08;23.90;90.10
66708;DHT22;53622;0.000;0.000;2023-08-31T18:14:12;23.90;89.20
66708;DHT22;53622;0.000;0.000;2023-08-31T18:31:38;23.90;90.00
66708;DHT22;53622;0.000;0.000;2023-08-31T18:34:09;23.90;86.60
66708;DHT22;53622;0.000;0.000;2023-08-31T18:41:36;23.80;83.90
66708;DHT22;53622;0.000;0.000;2023-08-31T18:49:05;23.90;87.90
66708;DHT22;53622;0.000;0.000;2023-08-31T19:04:06;23.90;85.80
66708;DHT22;53622;0.000;0.000;2023-08-31T19:21:34;23.90;87.00
66708;DHT22;53622;0.000;0.000;2023-08-31T19:24:03;23.90;82.60
66708;DHT22;53622;0.000;0.000;2023-08-31T19:36:34;23.90;85.40
66708;DHT22;53622;0.000;0.000;2023-08-31T19:54:00;23.90;85.70
66708;DHT22;53622;0.000;0.000;2023-08-31T20:06:29;24.00;99.90
66708;DHT22;53622;0.000;0.000;2023-08-31T20:09:00;24.00;81.90
66708;DHT22;53622;0.000;0.000;2023-08-31T20:26:27;23.80;85.50
66708;DHT22;53622;0.000;0.000;2023-08-31T20:44:00;23.80;86.10
66708;DHT22;53622;0.000;0.000;2023-08-31T20:58:57;23.80;86.10
66708;DHT22;53622;0.000;0.000;2023-08-31T21:03:56;23.80;85.00
66708;DHT22;53622;0.000;0.000;2023-08-31T21:06:26;23.80;84.30
66708;DHT22;53622;0.000;0.000;2023-08-31T21:16:25;23.70;85.90
66708;DHT22;53622;0.000;0.000;2023-08-31T21:33:53;23.70;84.70
66708;DHT22;53622;0.000;0.000;2023-08-31T21:51:21;23.70;84.60
66708;DHT22;53622;0.000;0.000;2023-08-31T22:08:48;23.70;84.80
66708;DHT22;53622;0.000;0.000;2023-08-31T22:21:25;23.60;82.00
66708;DHT22;53622;0.000;0.000;2023-08-31T22:23:56;23.60;84.90
66708;DHT22;53622;0.000;0.000;2023-08-31T22:41:22;23.70;85.00
66708;DHT22;53622;0.000;0.000;2023-08-31T22:58:49;23.60;84.90
66708;DHT22;53622;0.000;0.000;2023-08-31T23:16:15;23.60;85.10
66708;DHT22;53622;0.000;0.000;2023-08-31T23:31:16;23.70;85.50
66708;DHT22;53622;0.000;0.000;2023-08-31T23:48:42;23.60;85.70
